Time;durP1;ratioP1;P1;durP2;ratioP2;P2;SDS_P1;SDS_P2;PMS_P1;PMS_P2;Temp;Humidity;BMP_temperature;BMP_pressure;BME280_temperature;BME280_humidity;BME280_pressure;Samples;Min_cycle;Max_cycle;Signal;HPM_P1;HPM_P2
2021/08/15 00:02:20;;;;;;;5.57;4.53;;;20.70;99.90;;;;;;5079531;28;20465;-72
2021/08/15 00:04:47;;;;;;;5.70;4.90;;;20.60;99.90;;;;;;5080638;28;20450;-72
2021/08/15 00:07:15;;;;;;;7.27;4.37;;;20.60;99.90;;;;;;5084006;28;20454;-72
2021/08/15 00:09:42;;;;;;;6.37;4.67;;;20.50;99.90;;;;;;5081251;28;20465;-72
2021/08/15 00:12:10;;;;;;;6.90;4.50;;;20.40;99.90;;;;;;5079150;28;20478;-72
2021/08/15 00:14:38;;;;;;;10.80;5.03;;;20.40;99.90;;;;;;5078934;28;20564;-72
2021/08/15 00:17:05;;;;;;;8.03;4.80;;;20.40;99.90;;;;;;5078216;28;20494;-72
2021/08/15 00:19:31;;;;;;;8.90;4.67;;;20.30;99.90;;;;;;5079543;28;20469;-72
2021/08/15 00:21:58;;;;;;;7.00;4.60;;;20.20;99.90;;;;;;5079223;28;20445;-72
2021/08/15 00:24:29;;;;;;;9.10;4.80;;;20.20;99.90;;;;;;5078785;28;20520;-72
2021/08/15 00:26:56;;;;;;;8.20;4.90;;;20.20;99.90;;;;;;5079528;28;20532;-72
2021/08/15 00:29:23;;;;;;;7.80;5.03;;;20.20;99.90;;;;;;5078403;28;20481;-72
2021/08/15 00:31:50;;;;;;;9.93;4.60;;;20.10;99.90;;;;;;5078496;28;20489;-72
2021/08/15 00:34:17;;;;;;;5.80;5.03;;;20.10;99.90;;;;;;5078608;28;20519;-72
2021/08/15 00:36:44;;;;;;;6.40;4.90;;;20.00;99.90;;;;;;5078987;28;20775;-72
2021/08/15 00:39:10;;;;;;;7.03;4.90;;;20.00;99.90;;;;;;5078021;28;20754;-72
2021/08/15 00:41:39;;;;;;;6.90;5.37;;;19.90;99.90;;;;;;5077876;28;20481;-72
2021/08/15 00:44:06;;;;;;;5.93;4.60;;;19.90;99.90;;;;;;5078120;28;20916;-72
2021/08/15 00:46:33;;;;;;;5.00;4.50;;;19.90;99.90;;;;;;5079109;28;20450;-72
2021/08/15 00:49:00;;;;;;;8.20;4.67;;;19.90;99.90;;;;;;5078548;28;20446;-72
2021/08/15 00:51:26;;;;;;;7.13;4.73;;;19.80;99.90;;;;;;5077515;28;20486;-72
2021/08/15 00:53:53;;;;;;;6.80;4.60;;;19.80;99.90;;;;;;5078199;28;20815;-72
2021/08/15 00:56:20;;;;;;;6.97;4.97;;;19.80;99.90;;;;;;5078507;28;20469;-72
2021/08/15 00:58:48;;;;;;;8.07;5.20;;;19.80;99.90;;;;;;5078250;28;20469;-72
2021/08/15 01:01:18;;;;;;;5.43;4.90;;;19.70;99.90;;;;;;5078143;28;20740;-71
2021/08/15 01:03:45;;;;;;;7.30;4.37;;;19.70;99.90;;;;;;5077608;28;20458;-70
2021/08/15 01:06:13;;;;;;;6.90;4.63;;;19.70;99.90;;;;;;5076790;28;20779;-70
2021/08/15 01:08:39;;;;;;;8.53;4.77;;;19.70;99.90;;;;;;5078252;28;20454;-71
2021/08/15 01:11:08;;;;;;;8.70;5.17;;;19.60;99.90;;;;;;5077841;28;20473;-70
2021/08/15 01:13:36;;;;;;;9.67;5.00;;;19.60;99.90;;;;;;5077665;28;20454;-72
2021/08/15 01:16:05;;;;;;;6.43;4.40;;;19.60;99.90;;;;;;5078433;28;20888;-70
2021/08/15 01:18:34;;;;;;;5.10;4.00;;;19.50;99.90;;;;;;5077696;28;20462;-71
2021/08/15 01:21:02;;;;;;;5.70;4.30;;;19.50;99.90;;;;;;5077989;28;20470;-71
2021/08/15 01:23:33;;;;;;;7.37;4.53;;;19.50;99.90;;;;;;5077397;28;20458;-71
2021/08/15 01:26:01;;;;;;;7.67;4.40;;;19.40;99.90;;;;;;5076963;28;20874;-72
2021/08/15 01:28:29;;;;;;;5.70;4.37;;;19.40;99.90;;;;;;5077968;28;20549;-72
2021/08/15 01:30:56;;;;;;;6.10;3.87;;;19.40;99.90;;;;;;5078132;28;20465;-73
2021/08/15 01:33:28;;;;;;;6.17;3.97;;;19.40;99.90;;;;;;5077270;28;20478;-71
2021/08/15 01:35:55;;;;;;;5.73;3.40;;;19.40;99.90;;;;;;5077551;28;20458;-71
2021/08/15 01:38:24;;;;;;;5.87;4.17;;;19.40;99.90;;;;;;5077986;28;20458;-72
2021/08/15 01:40:51;;;;;;;6.60;4.80;;;19.40;99.90;;;;;;5077188;28;20481;-71
2021/08/15 01:43:18;;;;;;;9.60;5.80;;;19.30;99.90;;;;;;5076780;28;20512;-71
2021/08/15 01:45:46;;;;;;;7.30;4.50;;;19.40;99.90;;;;;;5077664;28;20534;-71
2021/08/15 01:48:13;;;;;;;6.63;4.07;;;19.30;99.90;;;;;;5076810;28;20455;-71
2021/08/15 01:50:40;;;;;;;11.30;4.23;;;19.30;99.90;;;;;;5077050;28;20742;-72
2021/08/15 01:53:09;;;;;;;10.93;4.20;;;19.30;99.90;;;;;;5077009;28;21004;-71
2021/08/15 01:55:39;;;;;;;8.17;4.13;;;19.20;99.90;;;;;;5076936;28;20458;-71
2021/08/15 01:58:06;;;;;;;6.63;3.60;;;19.20;99.90;;;;;;5077266;28;20797;-71
2021/08/15 02:00:33;;;;;;;7.87;4.20;;;19.20;99.90;;;;;;5076888;28;20458;-72
2021/08/15 02:03:01;;;;;;;11.20;5.33;;;19.20;99.90;;;;;;5076959;28;20464;-72
2021/08/15 02:05:28;;;;;;;5.90;4.03;;;19.20;99.90;;;;;;5077373;28;20786;-72
2021/08/15 02:07:57;;;;;;;4.87;3.87;;;19.20;99.90;;;;;;5076793;28;20805;-73
2021/08/15 02:10:25;;;;;;;4.83;3.43;;;19.20;99.90;;;;;;5076402;28;20773;-72
2021/08/15 02:12:53;;;;;;;4.90;3.57;;;19.20;99.90;;;;;;5077155;28;20802;-72
2021/08/15 02:15:20;;;;;;;7.03;3.73;;;19.20;99.90;;;;;;5077273;28;20466;-73
2021/08/15 02:17:47;;;;;;;5.80;3.47;;;19.20;99.90;;;;;;5076875;28;20465;-73
2021/08/15 02:20:17;;;;;;;11.60;4.80;;;19.10;99.90;;;;;;5076828;28;20454;-72
2021/08/15 02:22:45;;;;;;;5.57;4.10;;;19.10;99.90;;;;;;5076854;28;20458;-73
2021/08/15 02:25:13;;;;;;;7.70;4.23;;;19.00;99.90;;;;;;5076116;28;20454;-72
2021/08/15 02:27:41;;;;;;;6.37;4.40;;;19.00;99.90;;;;;;5076534;28;20458;-72
2021/08/15 02:30:09;;;;;;;5.90;3.97;;;18.90;99.90;;;;;;5076429;28;20762;-72
2021/08/15 02:32:36;;;;;;;6.23;4.30;;;18.90;99.90;;;;;;5076094;28;20482;-72
2021/08/15 02:35:04;;;;;;;5.47;4.20;;;18.90;99.90;;;;;;5076021;28;20914;-72
2021/08/15 02:37:32;;;;;;;7.93;4.60;;;18.90;99.90;;;;;;5076674;28;20458;-73
2021/08/15 02:40:00;;;;;;;13.37;4.53;;;18.90;99.90;;;;;;5076435;28;20493;-72
2021/08/15 02:42:26;;;;;;;7.97;4.50;;;18.80;99.90;;;;;;5076369;28;20435;-72
2021/08/15 02:44:56;;;;;;;7.53;3.97;;;18.80;99.90;;;;;;5076498;28;20837;-73
2021/08/15 02:47:23;;;;;;;7.00;4.90;;;18.80;99.90;;;;;;5076610;28;20750;-73
2021/08/15 02:49:49;;;;;;;7.27;4.33;;;18.80;99.90;;;;;;5076710;28;20455;-73
2021/08/15 02:52:16;;;;;;;6.00;4.30;;;18.80;99.90;;;;;;5076567;28;20559;-72
2021/08/15 02:54:44;;;;;;;11.23;4.87;;;18.80;99.90;;;;;;5075823;28;20515;-72
2021/08/15 02:57:11;;;;;;;7.20;4.60;;;18.80;99.90;;;;;;5075265;28;20549;-72
2021/08/15 02:59:40;;;;;;;5.10;4.33;;;18.80;99.90;;;;;;5075233;28;20454;-72
2021/08/15 03:02:09;;;;;;;7.33;4.40;;;18.80;99.90;;;;;;5075583;28;20454;-72
2021/08/15 03:04:37;;;;;;;8.23;4.93;;;18.80;99.90;;;;;;5075017;28;20454;-72
2021/08/15 03:07:04;;;;;;;6.23;4.23;;;18.70;99.90;;;;;;5075992;28;20742;-72
2021/08/15 03:09:31;;;;;;;5.23;4.10;;;18.70;99.90;;;;;;5074676;28;20465;-72
2021/08/15 03:11:59;;;;;;;10.03;5.73;;;18.70;99.90;;;;;;5075433;28;20485;-72
2021/08/15 03:14:28;;;;;;;9.23;4.77;;;18.70;99.90;;;;;;5075308;28;20458;-72
2021/08/15 03:16:55;;;;;;;7.17;4.90;;;18.70;99.90;;;;;;5075735;28;20542;-72
2021/08/15 03:19:22;;;;;;;8.47;4.30;;;18.70;99.90;;;;;;5075380;28;20454;-72
2021/08/15 03:21:51;;;;;;;7.10;4.60;;;18.70;99.90;;;;;;5075644;28;20464;-72
2021/08/15 03:24:18;;;;;;;5.97;4.47;;;18.60;99.90;;;;;;5075084;28;20455;-72
2021/08/15 03:26:46;;;;;;;14.00;4.30;;;18.60;99.90;;;;;;5075091;28;20469;-72
2021/08/15 03:29:18;;;;;;;7.17;4.57;;;18.60;99.90;;;;;;5075653;28;20523;-72
2021/08/15 03:31:46;;;;;;;8.87;4.87;;;18.60;99.90;;;;;;5079188;28;20446;-72
2021/08/15 03:34:14;;;;;;;9.07;4.87;;;18.60;99.90;;;;;;5079341;28;20466;-73
2021/08/15 03:36:43;;;;;;;7.73;5.07;;;18.60;99.90;;;;;;5079100;28;20457;-72
2021/08/15 03:39:09;;;;;;;9.77;5.10;;;18.60;99.90;;;;;;5078754;28;20848;-72
2021/08/15 03:41:38;;;;;;;8.00;4.80;;;18.60;99.90;;;;;;5077824;28;20887;-71
2021/08/15 03:44:05;;;;;;;8.47;4.60;;;18.60;99.90;;;;;;5078231;28;20454;-72
2021/08/15 03:46:34;;;;;;;10.87;4.57;;;18.60;99.90;;;;;;5078322;28;20876;-71
2021/08/15 03:49:01;;;;;;;10.90;5.20;;;18.50;99.90;;;;;;5078041;28;20464;-72
2021/08/15 03:51:28;;;;;;;11.60;5.20;;;18.50;99.90;;;;;;5078762;28;20466;-72
2021/08/15 03:53:54;;;;;;;8.00;5.23;;;18.50;99.90;;;;;;5077864;28;20489;-71
2021/08/15 03:56:21;;;;;;;12.53;5.13;;;18.60;99.90;;;;;;5077488;28;20458;-72
2021/08/15 03:58:48;;;;;;;12.53;5.10;;;18.50;99.90;;;;;;5077495;28;20469;-72
2021/08/15 04:01:16;;;;;;;7.87;4.73;;;18.50;99.90;;;;;;5077612;28;20560;-71
2021/08/15 04:03:45;;;;;;;7.87;4.60;;;18.50;99.90;;;;;;5077417;28;20549;-72
2021/08/15 04:06:20;;;;;;;9.07;4.77;;;18.50;99.90;;;;;;5077496;28;20457;-72
2021/08/15 04:08:47;;;;;;;6.47;4.43;;;18.50;99.90;;;;;;5077104;28;20511;-72
2021/08/15 04:11:14;;;;;;;5.63;4.90;;;18.50;99.90;;;;;;5077407;28;20469;-72
2021/08/15 04:13:41;;;;;;;11.27;4.90;;;18.40;99.90;;;;;;5078091;28;20489;-72
2021/08/15 04:16:09;;;;;;;5.63;4.37;;;18.40;99.90;;;;;;5076976;28;20464;-72
2021/08/15 04:18:36;;;;;;;10.07;4.50;;;18.40;99.90;;;;;;5077038;28;20458;-72
2021/08/15 04:21:04;;;;;;;9.20;4.47;;;18.40;99.90;;;;;;5076850;28;20447;-72
2021/08/15 04:23:31;;;;;;;6.50;4.47;;;18.40;99.90;;;;;;5077364;28;20476;-72
2021/08/15 04:25:58;;;;;;;9.77;4.60;;;18.40;99.90;;;;;;5077055;28;20476;-72
2021/08/15 04:28:25;;;;;;;7.00;5.23;;;18.40;99.90;;;;;;5077072;28;20911;-72
2021/08/15 04:30:52;;;;;;;6.00;4.17;;;18.50;99.90;;;;;;5077788;28;20942;-72
2021/08/15 04:33:20;;;;;;;11.30;4.97;;;18.50;99.90;;;;;;5077127;28;20486;-72
2021/08/15 04:35:49;;;;;;;14.43;5.73;;;18.50;99.90;;;;;;5076863;28;20501;-72
2021/08/15 04:38:17;;;;;;;9.77;4.20;;;18.50;99.90;;;;;;5077517;28;20468;-72
2021/08/15 04:40:44;;;;;;;8.90;4.87;;;18.50;99.90;;;;;;5076589;28;20888;-71
2021/08/15 04:43:10;;;;;;;6.80;4.60;;;18.50;99.90;;;;;;5077024;28;20587;-71
2021/08/15 04:45:37;;;;;;;6.23;4.20;;;18.50;99.90;;;;;;5077315;28;20454;-71
2021/08/15 04:48:04;;;;;;;8.00;4.60;;;18.50;99.90;;;;;;5076965;28;20454;-72
2021/08/15 04:50:31;;;;;;;9.47;4.30;;;18.60;99.90;;;;;;5077155;28;20854;-71
2021/08/15 04:52:58;;;;;;;6.00;3.67;;;18.60;99.90;;;;;;5077014;28;20505;-72
2021/08/15 04:55:26;;;;;;;8.30;4.70;;;18.60;99.90;;;;;;5076967;28;20454;-72
2021/08/15 04:57:53;;;;;;;14.13;5.10;;;18.60;99.90;;;;;;5077013;28;20867;-72
2021/08/15 05:00:20;;;;;;;6.63;4.20;;;18.60;99.90;;;;;;5076522;28;20464;-72
2021/08/15 05:02:47;;;;;;;5.50;3.80;;;18.70;99.90;;;;;;5077087;28;20628;-71
2021/08/15 05:05:14;;;;;;;9.60;4.50;;;18.70;99.90;;;;;;5076805;28;20458;-72
2021/08/15 05:07:40;;;;;;;8.63;4.00;;;18.70;99.90;;;;;;5077411;28;20458;-72
2021/08/15 05:10:08;;;;;;;6.57;3.67;;;18.80;99.90;;;;;;5076305;28;20458;-72
2021/08/15 05:12:36;;;;;;;9.40;3.93;;;18.80;99.90;;;;;;5076457;28;20478;-72
2021/08/15 05:15:03;;;;;;;10.60;4.60;;;18.80;99.90;;;;;;5077000;28;20473;-72
2021/08/15 05:17:30;;;;;;;7.10;3.83;;;18.90;99.90;;;;;;5076824;28;20525;-71
2021/08/15 05:19:57;;;;;;;7.20;3.47;;;18.90;99.90;;;;;;5077805;28;20465;-72
2021/08/15 05:22:25;;;;;;;4.53;3.53;;;18.90;99.90;;;;;;5077028;28;20473;-72
2021/08/15 05:24:52;;;;;;;7.23;3.80;;;19.00;99.90;;;;;;5077079;28;20462;-72
2021/08/15 05:27:18;;;;;;;8.20;4.50;;;19.00;99.90;;;;;;5076915;28;20891;-72
2021/08/15 05:29:46;;;;;;;6.37;3.90;;;19.00;99.90;;;;;;5077948;28;20454;-73
2021/08/15 05:32:13;;;;;;;7.27;4.20;;;19.10;99.90;;;;;;5077678;28;20450;-72
2021/08/15 05:34:40;;;;;;;7.00;3.97;;;19.10;99.90;;;;;;5077712;28;20486;-71
2021/08/15 05:37:07;;;;;;;7.27;4.27;;;19.20;99.90;;;;;;5077758;28;20458;-72
2021/08/15 05:39:33;;;;;;;5.50;3.40;;;19.30;99.90;;;;;;5077688;28;20454;-72
2021/08/15 05:42:00;;;;;;;6.37;3.40;;;19.30;99.90;;;;;;5077465;28;20720;-72
2021/08/15 05:44:27;;;;;;;9.10;3.43;;;19.30;99.90;;;;;;5077442;28;20450;-72
2021/08/15 05:46:55;;;;;;;4.47;2.60;;;19.30;99.90;;;;;;5077067;28;20497;-72
2021/08/15 05:49:22;;;;;;;6.33;3.30;;;19.30;99.90;;;;;;5076428;28;20454;-72
2021/08/15 05:51:48;;;;;;;5.93;3.27;;;19.40;99.90;;;;;;5076563;28;20458;-72
2021/08/15 05:54:15;;;;;;;4.90;3.13;;;19.50;99.90;;;;;;5077354;28;20482;-72
2021/08/15 05:56:42;;;;;;;6.10;3.80;;;19.50;99.90;;;;;;5077075;28;20454;-73
2021/08/15 05:59:09;;;;;;;6.73;3.37;;;19.50;99.90;;;;;;5076926;28;20513;-73
2021/08/15 06:01:37;;;;;;;7.63;3.50;;;19.60;99.90;;;;;;5077219;28;20903;-72
2021/08/15 06:04:05;;;;;;;7.47;3.60;;;19.70;99.90;;;;;;5077792;28;20450;-73
2021/08/15 06:06:32;;;;;;;7.37;3.60;;;19.80;99.90;;;;;;5077681;28;20454;-71
2021/08/15 06:08:59;;;;;;;6.00;3.90;;;19.80;99.90;;;;;;5078450;28;20500;-72
2021/08/15 06:11:26;;;;;;;13.97;3.47;;;19.90;99.90;;;;;;5078521;28;20455;-72
2021/08/15 06:13:53;;;;;;;4.70;3.43;;;19.90;99.90;;;;;;5077779;28;20482;-72
2021/08/15 06:16:20;;;;;;;5.83;3.47;;;20.00;99.90;;;;;;5078107;28;20450;-72
2021/08/15 06:18:47;;;;;;;7.87;3.97;;;20.00;99.90;;;;;;5077744;28;20469;-73
2021/08/15 06:21:15;;;;;;;8.37;3.70;;;20.00;99.90;;;;;;5078531;28;20830;-72
2021/08/15 06:23:41;;;;;;;7.97;3.97;;;20.10;99.90;;;;;;5077567;28;20472;-71
2021/08/15 06:26:08;;;;;;;7.23;3.60;;;20.10;99.90;;;;;;5079431;28;20470;-72
2021/08/15 06:28:35;;;;;;;6.77;3.50;;;20.10;99.90;;;;;;5077926;28;20459;-73
2021/08/15 06:31:02;;;;;;;6.93;3.60;;;20.10;99.90;;;;;;5077760;28;20469;-72
2021/08/15 06:33:30;;;;;;;5.93;3.10;;;20.10;99.90;;;;;;5077260;28;20559;-72
2021/08/15 06:35:57;;;;;;;5.10;3.80;;;20.20;99.90;;;;;;5076964;28;20458;-72
2021/08/15 06:38:25;;;;;;;8.57;3.67;;;20.20;99.90;;;;;;5077875;28;20469;-72
2021/08/15 06:40:56;;;;;;;6.90;4.10;;;20.30;99.90;;;;;;5077722;28;20486;-72
2021/08/15 06:43:23;;;;;;;7.07;3.57;;;20.30;99.90;;;;;;5077263;28;20496;-72
2021/08/15 06:45:50;;;;;;;6.70;3.20;;;20.40;99.90;;;;;;5077419;28;20470;-72
2021/08/15 06:48:16;;;;;;;5.37;3.80;;;20.50;99.90;;;;;;5078218;28;20779;-72
2021/08/15 06:50:43;;;;;;;9.30;3.47;;;20.50;99.90;;;;;;5076876;28;20458;-72
2021/08/15 06:53:10;;;;;;;9.30;3.73;;;20.50;99.90;;;;;;5076890;28;20478;-73
2021/08/15 06:55:42;;;;;;;10.40;4.00;;;20.60;99.90;;;;;;5075583;28;20454;-72
2021/08/15 06:58:09;;;;;;;10.60;4.00;;;20.60;99.90;;;;;;5075229;28;20438;-72
2021/08/15 07:00:36;;;;;;;6.90;4.10;;;20.70;99.90;;;;;;5076262;28;20458;-73
2021/08/15 07:03:03;;;;;;;6.20;3.80;;;20.70;99.90;;;;;;5077242;28;20454;-72
2021/08/15 07:05:32;;;;;;;7.40;3.30;;;20.80;99.90;;;;;;5077381;28;20458;-72
2021/08/15 07:07:59;;;;;;;5.63;3.30;;;20.80;99.90;;;;;;5081288;28;20539;-72
2021/08/15 07:10:27;;;;;;;7.10;3.70;;;20.90;99.90;;;;;;5082137;28;20902;-73
2021/08/15 07:12:58;;;;;;;6.40;3.70;;;21.00;99.90;;;;;;5080554;28;20512;-72
2021/08/15 07:15:28;;;;;;;8.10;3.80;;;21.00;99.90;;;;;;5081454;28;20525;-72
2021/08/15 07:17:55;;;;;;;11.33;4.60;;;21.00;99.90;;;;;;5078634;28;20460;-72
2021/08/15 07:20:23;;;;;;;7.13;3.90;;;20.90;99.90;;;;;;5076879;28;20487;-72
2021/08/15 07:22:52;;;;;;;9.00;3.60;;;20.90;99.90;;;;;;5076812;28;20469;-72
2021/08/15 07:25:20;;;;;;;6.40;3.73;;;20.90;99.90;;;;;;5075577;28;20458;-73
2021/08/15 07:27:49;;;;;;;7.63;3.30;;;20.90;99.90;;;;;;5075792;28;20469;-72
2021/08/15 07:30:17;;;;;;;7.83;4.00;;;20.90;99.90;;;;;;5077138;28;20516;-73
2021/08/15 07:32:51;;;;;;;11.20;4.10;;;21.00;99.90;;;;;;5077131;28;20458;-72
2021/08/15 07:35:18;;;;;;;7.30;3.30;;;21.00;99.90;;;;;;5074350;28;20518;-72
2021/08/15 07:37:45;;;;;;;6.47;3.70;;;21.00;99.90;;;;;;5075156;28;20471;-73
2021/08/15 07:40:12;;;;;;;4.73;3.40;;;21.10;99.90;;;;;;5074575;28;20978;-72
2021/08/15 07:42:39;;;;;;;5.33;3.70;;;21.10;99.90;;;;;;5075000;28;20469;-72
2021/08/15 07:45:07;;;;;;;6.33;3.60;;;21.20;99.90;;;;;;5075332;28;20461;-72
2021/08/15 07:47:36;;;;;;;5.23;4.30;;;21.20;99.90;;;;;;5076732;28;20454;-72
2021/08/15 07:50:05;;;;;;;6.97;3.57;;;21.20;99.90;;;;;;5077037;28;20458;-72
2021/08/15 07:52:32;;;;;;;5.03;3.40;;;21.30;99.90;;;;;;5077472;28;20478;-74
2021/08/15 07:54:59;;;;;;;8.13;3.37;;;21.30;99.90;;;;;;5079194;28;20547;-73
2021/08/15 07:57:26;;;;;;;4.93;3.43;;;21.40;99.90;;;;;;5081599;28;20469;-73
2021/08/15 07:59:54;;;;;;;6.40;3.60;;;21.50;99.90;;;;;;5077997;28;20450;-74
2021/08/15 08:02:21;;;;;;;7.47;3.80;;;21.70;99.90;;;;;;5076896;28;20515;-73
2021/08/15 08:04:52;;;;;;;5.20;3.90;;;21.70;99.90;;;;;;5077176;28;20459;-73
2021/08/15 08:07:19;;;;;;;5.23;3.30;;;21.90;99.90;;;;;;5077033;28;20846;-74
2021/08/15 08:09:48;;;;;;;7.53;3.80;;;21.90;99.90;;;;;;5077684;28;20477;-72
2021/08/15 08:12:15;;;;;;;4.90;3.40;;;22.00;99.90;;;;;;5074789;28;20462;-71
2021/08/15 08:14:43;;;;;;;5.40;3.43;;;21.90;99.90;;;;;;5074161;28;20489;-72
2021/08/15 08:17:12;;;;;;;5.43;2.93;;;21.80;99.90;;;;;;5077969;28;20462;-73
2021/08/15 08:19:39;;;;;;;4.80;3.40;;;21.80;99.90;;;;;;5078148;28;20575;-72
2021/08/15 08:22:07;;;;;;;6.63;3.27;;;21.80;99.90;;;;;;5077414;28;20450;-73
2021/08/15 08:24:34;;;;;;;6.00;3.90;;;21.80;99.90;;;;;;5077657;28;20456;-73
2021/08/15 08:27:01;;;;;;;5.90;3.73;;;21.90;99.90;;;;;;5077528;28;20782;-71
2021/08/15 08:29:28;;;;;;;6.33;3.87;;;21.90;99.90;;;;;;5077451;28;20454;-73
2021/08/15 08:31:57;;;;;;;7.53;3.07;;;21.90;99.90;;;;;;5077092;28;20887;-73
2021/08/15 08:34:24;;;;;;;7.40;3.80;;;21.80;99.90;;;;;;5076845;28;20508;-71
2021/08/15 08:36:51;;;;;;;6.50;2.83;;;21.90;99.90;;;;;;5077553;28;20458;-71
2021/08/15 08:39:19;;;;;;;5.90;3.20;;;21.90;99.90;;;;;;5076753;28;20454;-73
2021/08/15 08:41:46;;;;;;;5.87;3.70;;;21.90;99.90;;;;;;5077314;28;20512;-73
2021/08/15 08:44:14;;;;;;;6.80;3.20;;;22.00;99.90;;;;;;5076832;28;20454;-73
2021/08/15 08:46:43;;;;;;;6.53;3.30;;;22.00;99.90;;;;;;5077459;28;20458;-73
2021/08/15 08:49:10;;;;;;;3.60;3.07;;;22.00;99.90;;;;;;5076617;28;20458;-72
2021/08/15 08:51:39;;;;;;;3.60;3.30;;;22.00;99.90;;;;;;5076691;28;20894;-73
2021/08/15 08:54:07;;;;;;;6.10;3.73;;;22.10;99.90;;;;;;5076289;28;20598;-73
2021/08/15 08:56:36;;;;;;;4.03;3.00;;;22.20;99.90;;;;;;5076704;28;20828;-72
2021/08/15 08:59:03;;;;;;;7.60;3.60;;;22.40;99.90;;;;;;5076511;28;20454;-73
2021/08/15 09:01:29;;;;;;;6.60;3.67;;;22.50;99.90;;;;;;5076438;28;20529;-73
2021/08/15 09:03:57;;;;;;;6.87;3.37;;;22.60;99.90;;;;;;5076009;28;20457;-73
2021/08/15 09:06:25;;;;;;;5.30;4.37;;;22.70;99.90;;;;;;5076924;28;20553;-73
2021/08/15 09:08:55;;;;;;;6.37;3.47;;;22.60;99.90;;;;;;5077092;28;20454;-72
2021/08/15 09:11:25;;;;;;;5.30;3.30;;;22.50;99.90;;;;;;5077459;28;20980;-72
2021/08/15 09:14:05;;;;;;;6.43;3.63;;;22.30;99.90;;;;;;5076489;28;20528;-73
2021/08/15 09:16:52;;;;;;;5.23;3.63;;;22.20;99.90;;;;;;5076432;28;20457;-72
2021/08/15 09:19:24;;;;;;;6.90;3.60;;;22.30;99.90;;;;;;5076217;28;20462;-73
2021/08/15 09:21:51;;;;;;;5.20;3.10;;;22.40;99.90;;;;;;5075850;28;20462;-72
2021/08/15 09:24:18;;;;;;;5.53;3.90;;;22.50;99.90;;;;;;5076990;28;20465;-73
2021/08/15 09:26:55;;;;;;;6.17;3.60;;;22.60;99.90;;;;;;5075617;28;20458;-72
2021/08/15 09:29:24;;;;;;;3.50;2.80;;;22.60;99.90;;;;;;5077295;28;20438;-73
2021/08/15 09:31:51;;;;;;;4.70;3.20;;;22.70;99.90;;;;;;5076795;28;20454;-72
2021/08/15 09:34:26;;;;;;;5.03;2.87;;;22.70;99.90;;;;;;5076815;28;20474;-72
2021/08/15 09:36:53;;;;;;;5.37;2.57;;;22.80;99.90;;;;;;5077555;28;20438;-73
2021/08/15 09:39:31;;;;;;;4.23;3.10;;;22.80;99.90;;;;;;5077181;28;20486;-73
2021/08/15 09:41:58;;;;;;;3.83;2.83;;;22.90;99.90;;;;;;5077499;28;20430;-73
2021/08/15 09:44:27;;;;;;;4.27;2.77;;;23.00;99.90;;;;;;5077569;28;20450;-72
2021/08/15 09:47:03;;;;;;;7.07;2.90;;;23.10;99.90;;;;;;5077583;28;20795;-72
2021/08/15 09:49:34;;;;;;;7.27;3.47;;;23.20;99.90;;;;;;5077332;28;20475;-71
2021/08/15 09:52:04;;;;;;;5.20;3.23;;;23.50;99.90;;;;;;5076232;28;20438;-72
2021/08/15 09:54:31;;;;;;;2.90;2.60;;;23.40;99.90;;;;;;5075946;28;20482;-72
2021/08/15 09:56:59;;;;;;;5.07;2.60;;;23.40;99.90;;;;;;5075471;28;20450;-72
2021/08/15 09:59:34;;;;;;;3.93;2.43;;;23.40;99.90;;;;;;5076469;28;20465;-72
2021/08/15 10:02:01;;;;;;;6.30;2.77;;;23.40;99.90;;;;;;5075761;28;20453;-72
2021/08/15 10:04:28;;;;;;;4.23;3.20;;;23.30;99.90;;;;;;5075502;28;20469;-72
2021/08/15 10:06:56;;;;;;;5.67;3.73;;;23.40;99.90;;;;;;5075822;28;20462;-72
2021/08/15 10:09:25;;;;;;;4.10;2.93;;;23.40;99.90;;;;;;5075482;28;20458;-72
2021/08/15 10:11:52;;;;;;;4.97;2.90;;;23.40;99.90;;;;;;5075563;28;20454;-72
2021/08/15 10:14:19;;;;;;;4.30;3.03;;;23.50;99.90;;;;;;5075652;28;20494;-72
2021/08/15 10:16:55;;;;;;;4.13;3.33;;;23.60;99.90;;;;;;5075303;28;20746;-72
2021/08/15 10:19:32;;;;;;;4.60;3.10;;;23.60;99.90;;;;;;5075720;28;20465;-73
2021/08/15 10:22:00;;;;;;;6.77;3.10;;;23.70;99.90;;;;;;5075037;28;20449;-73
2021/08/15 10:24:42;;;;;;;3.80;2.60;;;23.80;99.90;;;;;;5074991;28;20531;-73
2021/08/15 10:27:09;;;;;;;4.57;3.40;;;24.00;99.90;;;;;;5075903;28;20477;-72
2021/08/15 10:29:43;;;;;;;5.23;2.70;;;24.20;99.90;;;;;;5075862;28;20780;-72
2021/08/15 10:32:19;;;;;;;3.63;2.73;;;24.30;99.90;;;;;;5076489;28;20457;-72
2021/08/15 10:35:17;;;;;;;4.33;2.80;;;24.50;99.90;;;;;;5076231;28;20462;-72
2021/08/15 10:37:45;;;;;;;4.77;3.20;;;24.60;99.90;;;;;;5076011;28;20438;-73
2021/08/15 10:40:59;;;;;;;3.87;2.90;;;24.60;99.90;;;;;;5075566;28;20482;-73
2021/08/15 10:44:09;;;;;;;5.73;3.20;;;24.70;99.90;;;;;;5076501;28;20540;-72
2021/08/15 10:46:37;;;;;;;4.90;3.60;;;24.70;99.90;;;;;;5075674;28;20450;-72
2021/08/15 10:49:06;;;;;;;5.60;3.63;;;24.80;99.90;;;;;;5075639;28;20492;-73
2021/08/15 10:51:48;;;;;;;6.60;3.80;;;24.70;99.90;;;;;;5075567;28;20862;-72
2021/08/15 10:55:06;;;;;;;3.83;3.20;;;24.80;99.90;;;;;;5076016;28;20434;-73
2021/08/15 10:57:46;;;;;;;5.13;3.33;;;24.80;99.90;;;;;;5076350;28;20527;-73
2021/08/15 11:00:55;;;;;;;5.20;3.60;;;24.50;99.90;;;;;;5075948;28;20541;-73
2021/08/15 11:03:36;;;;;;;3.40;3.07;;;24.50;99.90;;;;;;5075005;28;20434;-74
2021/08/15 11:06:38;;;;;;;7.63;4.90;;;24.50;99.90;;;;;;5074463;28;20434;-72
2021/08/15 11:09:10;;;;;;;7.33;4.30;;;24.50;99.90;;;;;;5073109;28;20461;-74
2021/08/15 11:11:57;;;;;;;6.63;4.60;;;24.60;99.90;;;;;;5075408;28;20779;-72
2021/08/15 11:14:28;;;;;;;4.57;3.13;;;24.60;99.90;;;;;;5076096;28;20478;-71
2021/08/15 11:17:11;;;;;;;5.40;3.27;;;24.60;99.90;;;;;;5075254;28;20451;-71
2021/08/15 11:19:38;;;;;;;7.10;4.80;;;24.60;99.90;;;;;;5075595;28;20504;-71
2021/08/15 11:22:07;;;;;;;5.97;4.20;;;24.60;99.90;;;;;;5074567;28;20480;-72
2021/08/15 11:24:36;;;;;;;8.80;3.83;;;24.60;99.90;;;;;;5075105;28;20515;-72
2021/08/15 11:27:04;;;;;;;5.10;3.60;;;24.80;99.90;;;;;;5074932;28;20458;-73
2021/08/15 11:29:31;;;;;;;5.80;3.80;;;25.00;99.90;;;;;;5075729;28;20570;-73
2021/08/15 11:31:59;;;;;;;6.80;3.73;;;25.30;99.90;;;;;;5074735;28;20560;-73
2021/08/15 11:34:27;;;;;;;9.00;4.53;;;25.70;99.90;;;;;;5074154;28;20454;-73
2021/08/15 11:36:58;;;;;;;4.97;3.87;;;26.10;99.90;;;;;;5074528;28;20466;-73
2021/08/15 11:39:30;;;;;;;5.83;3.80;;;26.80;99.90;;;;;;5074480;28;20505;-73
2021/08/15 11:42:00;;;;;;;5.00;3.60;;;26.70;99.90;;;;;;5075006;28;20847;-72
2021/08/15 11:44:26;;;;;;;5.60;3.93;;;26.70;99.90;;;;;;5075477;28;20455;-73
2021/08/15 11:46:53;;;;;;;6.17;3.60;;;27.00;99.90;;;;;;5075640;28;20461;-73
2021/08/15 11:49:33;;;;;;;5.33;3.73;;;27.40;99.90;;;;;;5075540;28;20548;-73
2021/08/15 11:52:13;;;;;;;6.80;3.40;;;28.10;99.90;;;;;;5078346;28;20480;-73
2021/08/15 11:54:41;;;;;;;5.87;3.70;;;28.80;99.90;;;;;;5078230;28;20481;-73
2021/08/15 11:57:11;;;;;;;6.97;4.37;;;29.30;99.90;;;;;;5080894;28;20474;-73
2021/08/15 11:59:43;;;;;;;5.60;3.87;;;29.30;99.90;;;;;;5080295;28;20446;-73
2021/08/15 12:02:18;;;;;;;5.63;3.83;;;29.10;99.90;;;;;;5078679;28;20450;-73
2021/08/15 12:04:49;;;;;;;4.07;3.40;;;29.00;99.90;;;;;;5077756;28;20469;-73
2021/08/15 12:07:24;;;;;;;6.60;4.40;;;29.00;99.90;;;;;;5078068;28;20781;-73
2021/08/15 12:10:23;;;;;;;7.30;3.90;;;28.90;99.90;;;;;;5079149;28;20457;-73
2021/08/15 12:13:12;;;;;;;5.70;4.10;;;28.50;99.90;;;;;;5077376;28;20462;-73
2021/08/15 12:15:40;;;;;;;4.80;4.13;;;28.30;99.90;;;;;;5077509;28;20778;-73
2021/08/15 12:18:07;;;;;;;4.83;3.77;;;28.30;99.90;;;;;;5077393;28;20462;-73
2021/08/15 12:20:44;;;;;;;7.47;4.53;;;28.40;99.90;;;;;;5077855;28;20458;-73
2021/08/15 12:23:11;;;;;;;5.07;4.20;;;28.40;99.90;;;;;;5077791;28;20442;-73
2021/08/15 12:25:38;;;;;;;5.20;3.73;;;28.50;99.90;;;;;;5077715;28;20527;-73
2021/08/15 12:28:11;;;;;;;6.43;4.23;;;28.40;99.90;;;;;;5077116;28;20465;-73
2021/08/15 12:30:38;;;;;;;5.23;4.13;;;28.30;99.90;;;;;;5077754;28;20454;-72
2021/08/15 12:33:25;;;;;;;5.70;3.90;;;28.10;99.90;;;;;;5077733;28;21013;-73
2021/08/15 12:35:52;;;;;;;6.97;5.00;;;27.50;99.90;;;;;;5078802;28;20496;-74
2021/08/15 12:38:29;;;;;;;5.93;4.80;;;27.10;99.90;;;;;;5078228;28;20760;-72
2021/08/15 12:40:56;;;;;;;5.50;4.07;;;26.80;99.90;;;;;;5077734;28;20591;-73
2021/08/15 12:43:26;;;;;;;7.30;4.30;;;26.80;99.90;;;;;;5077500;28;20915;-72
2021/08/15 12:45:53;;;;;;;5.27;3.60;;;26.70;99.90;;;;;;5077262;28;20443;-73
2021/08/15 12:48:20;;;;;;;7.40;4.33;;;27.20;99.90;;;;;;5077138;28;20458;-73
2021/08/15 12:50:58;;;;;;;5.30;3.90;;;27.90;99.90;;;;;;5076832;28;20467;-73
2021/08/15 12:53:32;;;;;;;4.80;3.77;;;28.60;99.90;;;;;;5077241;28;20469;-73
2021/08/15 12:56:18;;;;;;;5.77;3.97;;;29.40;99.90;;;;;;5077200;28;20763;-73
2021/08/15 12:58:46;;;;;;;4.70;3.90;;;30.10;99.90;;;;;;5077008;28;20478;-73